Time;durP1;ratioP1;P1;durP2;ratioP2;P2;SDS_P1;SDS_P2;PMS_P1;PMS_P2;Temp;Humidity;BMP_temperature;BMP_pressure;BME280_temperature;BME280_humidity;BME280_pressure;Samples;Min_cycle;Max_cycle;Signal;HPM_P1;HPM_P2
2023/06/12 00:00:45;;;;;;;9.10;6.00;;;24.50;43.20;;;;;;5055274;28;20429;-56
2023/06/12 00:03:12;;;;;;;6.53;5.93;;;24.40;43.20;;;;;;5055993;28;20453;-56
2023/06/12 00:05:42;;;;;;;6.83;6.33;;;24.40;43.50;;;;;;5055120;28;20450;-56
2023/06/12 00:08:09;;;;;;;9.80;6.00;;;24.30;43.90;;;;;;5054936;28;20460;-56
2023/06/12 00:10:36;;;;;;;6.97;6.20;;;24.30;44.10;;;;;;5055207;28;20628;-56
2023/06/12 00:13:03;;;;;;;8.50;5.20;;;24.10;43.90;;;;;;5055610;28;20465;-56
2023/06/12 00:15:31;;;;;;;9.83;5.40;;;24.00;44.10;;;;;;5055106;28;20446;-56
2023/06/12 00:17:57;;;;;;;6.27;5.77;;;23.80;44.60;;;;;;5054838;28;20474;-56
2023/06/12 00:20:24;;;;;;;6.07;5.57;;;23.60;44.80;;;;;;5054799;28;20459;-56
2023/06/12 00:22:51;;;;;;;6.60;6.10;;;23.50;45.00;;;;;;5054858;28;20445;-56
2023/06/12 00:25:18;;;;;;;6.90;6.30;;;23.30;45.40;;;;;;5054443;28;20438;-56
2023/06/12 00:27:45;;;;;;;11.13;5.77;;;23.20;45.80;;;;;;5054217;28;20995;-56
2023/06/12 00:30:13;;;;;;;6.60;5.60;;;23.10;46.10;;;;;;5054515;28;20477;-56
2023/06/12 00:32:41;;;;;;;8.37;5.70;;;23.00;46.20;;;;;;5054559;28;20441;-56
2023/06/12 00:35:09;;;;;;;5.73;5.27;;;22.90;46.40;;;;;;5054581;28;20811;-56
2023/06/12 00:37:35;;;;;;;6.27;5.77;;;22.80;46.50;;;;;;5054001;28;20500;-56
2023/06/12 00:40:03;;;;;;;6.57;5.80;;;22.70;46.80;;;;;;5054466;28;20821;-56
2023/06/12 00:42:31;;;;;;;6.80;5.47;;;22.60;46.80;;;;;;5054365;28;20446;-56
2023/06/12 00:44:58;;;;;;;6.00;5.43;;;22.50;47.40;;;;;;5054314;28;20496;-56
2023/06/12 00:47:25;;;;;;;6.80;6.20;;;22.50;47.40;;;;;;5053760;28;20986;-56
2023/06/12 00:49:53;;;;;;;6.27;5.77;;;22.40;47.40;;;;;;5054384;28;20471;-56
2023/06/12 00:52:24;;;;;;;6.87;6.30;;;22.40;47.60;;;;;;5054234;28;20452;-56
2023/06/12 00:54:51;;;;;;;6.17;5.67;;;22.30;47.60;;;;;;5053885;28;20806;-56
2023/06/12 00:57:18;;;;;;;6.53;6.03;;;22.30;47.80;;;;;;5054053;28;20496;-56
2023/06/12 00:59:45;;;;;;;5.87;5.27;;;22.20;47.80;;;;;;5053911;28;20459;-56
2023/06/12 01:02:13;;;;;;;7.67;6.63;;;22.10;47.90;;;;;;5053992;28;20569;-56
2023/06/12 01:04:42;;;;;;;8.20;5.87;;;22.00;48.10;;;;;;5053932;28;20485;-56
2023/06/12 01:07:20;;;;;;;6.80;6.27;;;22.00;48.50;;;;;;5053465;28;20556;-56
2023/06/12 01:09:53;;;;;;;7.47;6.97;;;21.90;48.60;;;;;;5053673;28;20434;-56
2023/06/12 01:12:21;;;;;;;8.13;5.93;;;21.90;48.60;;;;;;5053760;28;20947;-56
2023/06/12 01:14:48;;;;;;;8.20;6.63;;;21.80;48.80;;;;;;5053799;28;20472;-56
2023/06/12 01:17:16;;;;;;;8.80;6.63;;;21.80;48.80;;;;;;5053685;28;20473;-57
2023/06/12 01:19:43;;;;;;;5.80;5.30;;;21.80;48.80;;;;;;5053561;28;20481;-56
2023/06/12 01:22:16;;;;;;;6.90;6.17;;;21.80;49.00;;;;;;5054068;28;20457;-56
2023/06/12 01:25:21;;;;;;;7.30;6.00;;;21.70;49.00;;;;;;5054105;28;20434;-56
2023/06/12 01:28:01;;;;;;;6.70;6.17;;;21.70;49.20;;;;;;5048275;28;20563;-56
2023/06/12 01:30:43;;;;;;;6.03;5.60;;;21.70;49.40;;;;;;5053569;28;20438;-56
2023/06/12 01:33:17;;;;;;;6.50;5.90;;;21.60;49.50;;;;;;5053643;28;20476;-56
2023/06/12 01:35:46;;;;;;;6.83;6.23;;;21.50;49.60;;;;;;5053543;28;20440;-56
2023/06/12 01:38:18;;;;;;;7.47;6.80;;;21.50;49.60;;;;;;5053677;28;20481;-56
2023/06/12 01:40:47;;;;;;;7.53;6.53;;;21.40;49.80;;;;;;5053420;28;20426;-56
2023/06/12 01:43:14;;;;;;;6.57;5.93;;;21.40;50.10;;;;;;5053398;28;20453;-56
2023/06/12 01:45:41;;;;;;;7.07;6.47;;;21.30;50.00;;;;;;5053333;28;20460;-56
2023/06/12 01:48:08;;;;;;;5.77;5.30;;;21.30;50.00;;;;;;5053363;28;20485;-56
2023/06/12 01:50:36;;;;;;;7.03;6.53;;;21.20;50.20;;;;;;5052881;28;20449;-56
2023/06/12 01:53:03;;;;;;;7.73;6.93;;;21.20;50.10;;;;;;5053271;28;20445;-56
2023/06/12 01:55:30;;;;;;;7.17;6.47;;;21.20;50.30;;;;;;5052926;28;20453;-56
2023/06/12 01:57:56;;;;;;;9.13;6.30;;;21.20;50.40;;;;;;5052744;28;20995;-56
2023/06/12 02:00:23;;;;;;;6.57;5.90;;;21.10;50.40;;;;;;5053036;28;20518;-56
2023/06/12 02:02:54;;;;;;;6.93;6.00;;;21.10;50.90;;;;;;5053279;28;20495;-56
2023/06/12 02:05:21;;;;;;;7.73;6.90;;;21.10;51.00;;;;;;5053145;28;20491;-56
2023/06/12 02:07:49;;;;;;;6.83;6.00;;;21.00;51.30;;;;;;5053021;28;20485;-56
2023/06/12 02:10:16;;;;;;;6.57;6.00;;;21.00;51.50;;;;;;5052878;28;20499;-56
2023/06/12 02:12:43;;;;;;;12.27;6.30;;;20.90;51.70;;;;;;5052807;28;21038;-56
2023/06/12 02:15:11;;;;;;;7.10;6.23;;;20.90;51.90;;;;;;5052799;28;20971;-56
2023/06/12 02:17:38;;;;;;;7.60;6.17;;;20.90;52.00;;;;;;5052998;28;20544;-56
2023/06/12 02:20:06;;;;;;;6.43;5.80;;;20.80;52.20;;;;;;5052845;28;20480;-56
2023/06/12 02:22:32;;;;;;;6.67;6.07;;;20.80;52.40;;;;;;5053010;28;20445;-56
2023/06/12 02:25:01;;;;;;;7.70;6.00;;;20.70;52.50;;;;;;5053241;28;20812;-56
2023/06/12 02:27:28;;;;;;;6.60;5.47;;;20.70;52.80;;;;;;5053067;28;20492;-56
2023/06/12 02:29:55;;;;;;;6.90;6.23;;;20.60;52.90;;;;;;5052819;28;20449;-56
2023/06/12 02:32:22;;;;;;;7.17;5.77;;;20.50;53.10;;;;;;5053017;28;20445;-56
2023/06/12 02:34:49;;;;;;;6.47;5.97;;;20.50;53.40;;;;;;5052918;28;20457;-56
2023/06/12 02:37:16;;;;;;;7.70;6.37;;;20.50;53.50;;;;;;5052744;28;20469;-56
2023/06/12 02:39:43;;;;;;;6.93;5.20;;;20.40;54.10;;;;;;5052740;28;20494;-56
2023/06/12 02:42:11;;;;;;;6.80;6.20;;;20.40;53.70;;;;;;5052789;28;20456;-56
2023/06/12 02:44:38;;;;;;;6.47;5.97;;;20.30;53.80;;;;;;5052755;28;20536;-56
2023/06/12 02:47:05;;;;;;;6.73;6.13;;;20.30;53.90;;;;;;5052515;28;20489;-56
2023/06/12 02:49:32;;;;;;;6.07;5.57;;;20.30;54.20;;;;;;5055731;28;20510;-56
2023/06/12 02:51:59;;;;;;;6.73;5.90;;;20.20;54.30;;;;;;5056336;28;20465;-56
2023/06/12 02:54:28;;;;;;;9.97;5.50;;;20.20;54.50;;;;;;5056517;28;20888;-56
2023/06/12 02:56:54;;;;;;;6.60;5.40;;;20.10;54.50;;;;;;5056294;28;20466;-56
2023/06/12 02:59:24;;;;;;;6.47;5.03;;;20.00;54.40;;;;;;5056500;28;20456;-56
2023/06/12 03:01:51;;;;;;;7.40;6.63;;;19.90;54.20;;;;;;5056314;28;20448;-56
2023/06/12 03:04:19;;;;;;;6.57;5.90;;;19.90;54.20;;;;;;5056294;28;20502;-56
2023/06/12 03:06:47;;;;;;;7.43;6.70;;;19.80;54.30;;;;;;5055824;28;20462;-56
2023/06/12 03:09:15;;;;;;;7.43;6.80;;;19.80;54.50;;;;;;5056151;28;20532;-56
2023/06/12 03:11:42;;;;;;;7.30;6.70;;;19.80;54.70;;;;;;5055673;28;20834;-56
2023/06/12 03:14:09;;;;;;;7.90;7.20;;;19.70;54.70;;;;;;5056082;28;20457;-56
2023/06/12 03:16:37;;;;;;;7.27;6.57;;;19.70;55.00;;;;;;5055923;28;20473;-56
2023/06/12 03:19:04;;;;;;;6.73;6.23;;;19.60;55.20;;;;;;5055982;28;20574;-56
2023/06/12 03:21:31;;;;;;;8.83;6.67;;;19.60;55.40;;;;;;5055515;28;20944;-56
2023/06/12 03:23:57;;;;;;;6.77;6.17;;;19.60;55.60;;;;;;5055986;28;20453;-56
2023/06/12 03:26:24;;;;;;;9.10;6.70;;;19.60;55.60;;;;;;5055559;28;20465;-56
2023/06/12 03:28:51;;;;;;;6.73;6.17;;;19.50;55.70;;;;;;5055751;28;20484;-57
2023/06/12 03:31:18;;;;;;;6.47;5.97;;;19.50;55.90;;;;;;5055802;28;20536;-56
2023/06/12 03:33:46;;;;;;;7.17;6.50;;;19.50;56.00;;;;;;5056238;28;20441;-56
2023/06/12 03:36:12;;;;;;;7.20;6.23;;;19.40;56.00;;;;;;5055732;28;20469;-56
2023/06/12 03:38:39;;;;;;;7.43;6.73;;;19.50;56.20;;;;;;5055884;28;20454;-56
2023/06/12 03:41:06;;;;;;;7.00;6.40;;;19.40;56.20;;;;;;5055280;28;20484;-56
2023/06/12 03:43:33;;;;;;;7.30;6.70;;;19.40;56.40;;;;;;5055491;28;20552;-56
2023/06/12 03:45:59;;;;;;;7.00;6.30;;;19.40;56.50;;;;;;5055679;28;20465;-56
2023/06/12 03:48:26;;;;;;;7.00;6.10;;;19.40;56.60;;;;;;5055416;28;20478;-56
2023/06/12 03:50:54;;;;;;;7.17;6.57;;;19.50;56.80;;;;;;5055385;28;20473;-56
2023/06/12 03:53:21;;;;;;;7.10;6.40;;;19.40;57.00;;;;;;5055389;28;20454;-56
2023/06/12 03:55:47;;;;;;;7.30;6.53;;;19.50;57.10;;;;;;5055224;28;20859;-56
2023/06/12 03:58:16;;;;;;;7.43;6.37;;;19.40;57.10;;;;;;5056130;28;20453;-56
2023/06/12 04:00:43;;;;;;;6.67;6.07;;;19.30;57.20;;;;;;5055043;28;20951;-56
2023/06/12 04:03:10;;;;;;;10.50;6.60;;;19.30;57.20;;;;;;5055404;28;20455;-56
2023/06/12 04:05:37;;;;;;;6.40;5.80;;;19.30;57.40;;;;;;5054953;28;20450;-56
2023/06/12 04:08:05;;;;;;;9.73;5.63;;;19.30;57.50;;;;;;5054884;28;20540;-56
2023/06/12 04:10:33;;;;;;;6.33;5.73;;;19.30;57.70;;;;;;5055001;28;20468;-56
2023/06/12 04:13:00;;;;;;;6.60;5.87;;;19.30;57.80;;;;;;5054506;28;20496;-56
2023/06/12 04:15:28;;;;;;;7.67;6.20;;;19.30;57.90;;;;;;5054633;28;20445;-56
2023/06/12 04:17:57;;;;;;;6.90;6.30;;;19.30;58.10;;;;;;5054832;28;20508;-56
2023/06/12 04:20:24;;;;;;;8.13;5.90;;;19.30;58.20;;;;;;5054659;28;20532;-56
2023/06/12 04:22:51;;;;;;;6.47;5.80;;;19.30;58.40;;;;;;5054770;28;20520;-56
2023/06/12 04:25:20;;;;;;;6.53;5.93;;;19.30;58.60;;;;;;5054705;28;20445;-56
2023/06/12 04:27:48;;;;;;;6.90;6.00;;;19.20;58.40;;;;;;5054687;28;20496;-56
2023/06/12 04:30:16;;;;;;;8.47;7.20;;;19.10;58.30;;;;;;5055080;28;20446;-56
2023/06/12 04:32:43;;;;;;;6.47;5.87;;;19.10;58.30;;;;;;5055315;28;20450;-56
2023/06/12 04:35:10;;;;;;;6.10;5.60;;;19.10;58.40;;;;;;5054862;28;20859;-56
2023/06/12 04:37:37;;;;;;;6.50;5.90;;;19.00;58.30;;;;;;5062276;28;20480;-56
2023/06/12 04:40:04;;;;;;;6.53;5.93;;;19.00;58.70;;;;;;5074826;28;20453;-56
2023/06/12 04:42:32;;;;;;;6.80;6.27;;;18.90;58.70;;;;;;5074408;28;20448;-56
2023/06/12 04:45:00;;;;;;;9.03;6.97;;;18.90;59.00;;;;;;5074437;28;20444;-56
2023/06/12 04:47:28;;;;;;;7.90;7.10;;;19.00;59.70;;;;;;5074268;28;20587;-56
2023/06/12 04:49:57;;;;;;;8.57;7.03;;;19.10;59.70;;;;;;5074128;28;20455;-56
2023/06/12 04:52:24;;;;;;;10.70;6.10;;;19.20;59.90;;;;;;5074165;28;20471;-56
2023/06/12 04:54:52;;;;;;;7.10;6.50;;;19.30;60.30;;;;;;5073845;28;21017;-56
2023/06/12 04:57:19;;;;;;;7.27;6.67;;;19.40;60.80;;;;;;5073959;28;20836;-56
2023/06/12 04:59:48;;;;;;;7.20;6.50;;;19.50;61.20;;;;;;5074324;28;20544;-56
2023/06/12 05:02:15;;;;;;;6.20;5.60;;;19.50;60.60;;;;;;5074010;28;20552;-56
2023/06/12 05:04:43;;;;;;;7.10;6.40;;;19.60;60.50;;;;;;5074121;28;20452;-56
2023/06/12 05:07:16;;;;;;;9.00;6.60;;;19.70;60.30;;;;;;5073733;28;20471;-56
2023/06/12 05:09:43;;;;;;;7.00;6.40;;;19.70;60.60;;;;;;5073942;28;20453;-56
2023/06/12 05:12:11;;;;;;;7.87;6.90;;;19.80;61.10;;;;;;5073487;28;20452;-56
2023/06/12 05:14:39;;;;;;;7.80;6.30;;;19.80;61.90;;;;;;5073972;28;20449;-56
2023/06/12 05:17:07;;;;;;;8.70;6.97;;;19.80;62.70;;;;;;5063012;28;20503;-56
2023/06/12 05:19:35;;;;;;;6.50;5.90;;;19.90;63.30;;;;;;5053559;28;20585;-56
2023/06/12 05:22:01;;;;;;;8.43;6.80;;;19.90;64.10;;;;;;5054083;28;20453;-56
2023/06/12 05:24:28;;;;;;;8.00;7.30;;;20.00;63.20;;;;;;5053747;28;20456;-56
2023/06/12 05:26:55;;;;;;;6.53;5.67;;;20.10;63.70;;;;;;5053246;28;21001;-56
2023/06/12 05:29:21;;;;;;;6.67;6.00;;;20.20;64.00;;;;;;5061321;28;20476;-56
2023/06/12 05:31:48;;;;;;;7.30;6.57;;;20.40;64.30;;;;;;5073523;28;20452;-56
2023/06/12 05:34:16;;;;;;;7.40;6.70;;;20.40;64.10;;;;;;5073496;28;20451;-56
2023/06/12 05:36:43;;;;;;;6.47;5.87;;;20.50;62.20;;;;;;5073461;28;20472;-56
2023/06/12 05:39:09;;;;;;;7.37;6.67;;;20.60;62.30;;;;;;5073511;28;20436;-56
2023/06/12 05:41:36;;;;;;;7.20;6.03;;;20.70;62.10;;;;;;5073427;28;20459;-56
2023/06/12 05:44:05;;;;;;;6.67;6.17;;;20.80;60.60;;;;;;5073201;28;20472;-57
2023/06/12 05:46:31;;;;;;;7.20;6.50;;;21.00;59.80;;;;;;5072726;28;20990;-56
2023/06/12 05:48:58;;;;;;;6.97;6.47;;;21.10;59.60;;;;;;5073257;28;20480;-56
2023/06/12 05:51:27;;;;;;;7.77;5.87;;;21.20;59.10;;;;;;5073222;28;20456;-57
2023/06/12 05:53:53;;;;;;;7.23;5.90;;;21.40;58.90;;;;;;5072903;28;20974;-56
2023/06/12 05:56:22;;;;;;;8.47;6.53;;;21.50;58.40;;;;;;5072363;28;20464;-56
2023/06/12 05:58:48;;;;;;;6.27;5.77;;;21.60;57.90;;;;;;5059021;28;20450;-56
2023/06/12 06:01:16;;;;;;;6.40;5.80;;;21.80;57.90;;;;;;5052937;28;20954;-56
2023/06/12 06:03:45;;;;;;;6.83;6.23;;;21.90;57.30;;;;;;5052956;28;20954;-56
2023/06/12 06:06:12;;;;;;;6.63;6.03;;;22.00;56.60;;;;;;5053140;28;20882;-57
2023/06/12 06:08:41;;;;;;;6.83;6.23;;;22.20;56.50;;;;;;5053292;28;20530;-56
2023/06/12 06:11:07;;;;;;;6.73;6.10;;;22.30;56.00;;;;;;5052700;28;21001;-56
2023/06/12 06:13:34;;;;;;;7.00;6.00;;;22.40;55.60;;;;;;5053164;28;20487;-56
2023/06/12 06:16:02;;;;;;;6.70;6.03;;;22.60;55.00;;;;;;5053144;28;20474;-57
2023/06/12 06:18:28;;;;;;;6.73;5.97;;;22.70;53.80;;;;;;5053048;28;20524;-57
2023/06/12 06:20:55;;;;;;;6.60;6.00;;;22.80;53.00;;;;;;5052932;28;20499;-57
2023/06/12 06:23:22;;;;;;;6.10;5.60;;;22.90;52.80;;;;;;5054223;28;20460;-57
2023/06/12 06:25:50;;;;;;;7.43;6.23;;;23.10;52.60;;;;;;5056932;28;20470;-57
2023/06/12 06:28:17;;;;;;;6.37;5.77;;;23.20;52.30;;;;;;5056871;28;20481;-57
2023/06/12 06:30:43;;;;;;;8.10;6.50;;;23.30;52.00;;;;;;5056971;28;20453;-57
2023/06/12 06:33:10;;;;;;;7.07;6.37;;;23.40;51.40;;;;;;5056571;28;20826;-57
2023/06/12 06:35:37;;;;;;;6.63;6.03;;;23.60;51.20;;;;;;5056746;28;20480;-57
2023/06/12 06:38:04;;;;;;;9.57;6.30;;;23.70;51.00;;;;;;5056787;28;20445;-57
2023/06/12 06:40:30;;;;;;;6.30;5.80;;;23.90;50.40;;;;;;5056743;28;20457;-57
2023/06/12 06:42:58;;;;;;;9.63;5.97;;;24.10;49.90;;;;;;5056694;28;20476;-57
2023/06/12 06:45:25;;;;;;;6.93;6.30;;;24.10;49.50;;;;;;5056628;28;20515;-57
2023/06/12 06:47:52;;;;;;;6.33;5.83;;;24.30;49.30;;;;;;5056371;28;20473;-57
2023/06/12 06:50:19;;;;;;;5.87;5.37;;;24.50;48.90;;;;;;5056436;28;20461;-57
2023/06/12 06:52:45;;;;;;;6.73;6.13;;;24.60;48.30;;;;;;5056501;28;20485;-57
2023/06/12 06:55:12;;;;;;;8.40;6.40;;;24.80;48.20;;;;;;5056457;28;20452;-57
2023/06/12 06:57:39;;;;;;;5.80;5.40;;;24.90;48.00;;;;;;5056338;28;20471;-57
2023/06/12 07:00:09;;;;;;;6.87;6.20;;;25.10;47.40;;;;;;5056536;28;20449;-57
2023/06/12 07:02:36;;;;;;;6.17;5.50;;;25.30;47.20;;;;;;5056044;28;20483;-57
2023/06/12 07:05:03;;;;;;;6.80;5.80;;;25.40;46.80;;;;;;5055995;28;20545;-57
2023/06/12 07:07:30;;;;;;;6.40;5.90;;;25.50;46.50;;;;;;5055871;28;20527;-57
2023/06/12 07:09:57;;;;;;;6.90;6.20;;;25.70;46.30;;;;;;5055927;28;20470;-57
2023/06/12 07:12:23;;;;;;;6.20;5.40;;;25.90;46.00;;;;;;5055811;28;20461;-57
2023/06/12 07:14:50;;;;;;;6.40;5.80;;;26.10;45.90;;;;;;5056368;28;20441;-57
2023/06/12 07:17:18;;;;;;;9.03;5.67;;;26.20;45.30;;;;;;5056034;28;20515;-57
2023/06/12 07:19:45;;;;;;;7.37;6.63;;;26.40;44.80;;;;;;5055774;28;20455;-57
2023/06/12 07:22:11;;;;;;;7.73;6.27;;;26.50;44.30;;;;;;5056041;28;20495;-57
2023/06/12 07:24:38;;;;;;;6.23;5.63;;;26.70;44.10;;;;;;5055621;28;20458;-57
2023/06/12 07:27:05;;;;;;;7.57;6.47;;;26.80;44.00;;;;;;5055785;28;20499;-57
2023/06/12 07:29:32;;;;;;;7.53;6.83;;;27.00;43.70;;;;;;5055694;28;20845;-57
2023/06/12 07:31:58;;;;;;;6.93;6.23;;;27.20;43.50;;;;;;5055488;28;20449;-57
2023/06/12 07:34:26;;;;;;;7.23;6.63;;;27.40;43.10;;;;;;5055323;28;20449;-57
2023/06/12 07:36:53;;;;;;;6.67;6.17;;;27.60;42.70;;;;;;5055604;28;20473;-57
2023/06/12 07:39:20;;;;;;;6.90;6.33;;;27.80;42.30;;;;;;5055613;28;20445;-57
2023/06/12 07:41:47;;;;;;;6.73;6.13;;;28.00;42.10;;;;;;5055440;28;20966;-57
2023/06/12 07:44:13;;;;;;;6.73;6.03;;;28.20;41.00;;;;;;5055646;28;20876;-56
2023/06/12 07:46:42;;;;;;;6.03;5.60;;;28.30;40.30;;;;;;5055894;28;20526;-55
2023/06/12 07:49:12;;;;;;;7.63;5.97;;;28.50;39.70;;;;;;5055757;28;20482;-56
2023/06/12 07:51:40;;;;;;;6.00;5.50;;;28.70;39.50;;;;;;5055480;28;20535;-55
2023/06/12 07:54:07;;;;;;;6.47;5.97;;;29.00;39.20;;;;;;5055262;28;20441;-56
2023/06/12 07:56:35;;;;;;;7.10;6.50;;;29.20;40.10;;;;;;5055690;28;20457;-56
2023/06/12 07:59:06;;;;;;;6.23;5.43;;;29.40;39.40;;;;;;5055259;28;20838;-55
2023/06/12 08:01:34;;;;;;;6.30;5.80;;;29.50;37.90;;;;;;5055386;28;20459;-55
2023/06/12 08:04:03;;;;;;;6.17;5.67;;;29.70;37.00;;;;;;5055197;28;20453;-55
2023/06/12 08:06:35;;;;;;;6.70;6.00;;;29.80;36.40;;;;;;5055068;28;20478;-55
2023/06/12 08:09:04;;;;;;;9.80;6.20;;;30.10;36.10;;;;;;5055033;28;20469;-55
2023/06/12 08:11:30;;;;;;;6.60;6.00;;;30.20;36.10;;;;;;5054886;28;20462;-55
2023/06/12 08:13:57;;;;;;;7.27;6.57;;;30.30;35.20;;;;;;5055109;28;20446;-56
2023/06/12 08:16:24;;;;;;;10.10;6.53;;;30.40;34.90;;;;;;5054913;28;20461;-56
2023/06/12 08:18:51;;;;;;;7.10;5.83;;;30.50;35.10;;;;;;5054924;28;20449;-56
2023/06/12 08:21:17;;;;;;;6.83;5.33;;;30.70;35.30;;;;;;5054746;28;20444;-56
2023/06/12 08:23:44;;;;;;;7.30;6.67;;;30.80;34.70;;;;;;5054934;28;20453;-56
2023/06/12 08:26:12;;;;;;;6.37;5.90;;;31.00;34.50;;;;;;5054618;28;20978;-56
2023/06/12 08:28:39;;;;;;;6.07;5.67;;;31.10;34.30;;;;;;5054610;28;20484;-55
2023/06/12 08:31:06;;;;;;;7.03;6.33;;;31.30;34.80;;;;;;5054724;28;20449;-55
2023/06/12 08:33:33;;;;;;;7.03;6.43;;;31.40;34.70;;;;;;5054831;28;20456;-55
2023/06/12 08:36:00;;;;;;;6.57;6.07;;;31.50;34.60;;;;;;5054611;28;20472;-55
2023/06/12 08:38:26;;;;;;;6.30;5.80;;;31.60;34.10;;;;;;5054631;28;20445;-55
2023/06/12 08:40:55;;;;;;;7.80;6.10;;;31.80;33.40;;;;;;5054456;28;20520;-55
2023/06/12 08:43:23;;;;;;;6.30;5.87;;;32.00;32.30;;;;;;5054440;28;20452;-55
2023/06/12 08:45:52;;;;;;;6.73;6.27;;;32.10;32.30;;;;;;5053955;28;20457;-55
2023/06/12 08:48:21;;;;;;;6.90;6.20;;;32.20;32.20;;;;;;5054289;28;20540;-56
2023/06/12 08:50:48;;;;;;;7.90;6.97;;;32.30;31.80;;;;;;5053847;28;20488;-56
2023/06/12 08:53:15;;;;;;;6.13;5.63;;;32.40;32.10;;;;;;5054237;28;20494;-56
2023/06/12 08:55:44;;;;;;;9.20;6.57;;;32.60;31.70;;;;;;5054043;28;20449;-56
2023/06/12 08:58:11;;;;;;;7.00;6.40;;;32.70;32.20;;;;;;5053912;28;20951;-56
2023/06/12 09:00:39;;;;;;;7.30;6.43;;;32.80;31.70;;;;;;5053837;28;20433;-56
2023/06/12 09:03:06;;;;;;;7.60;6.37;;;32.90;31.00;;;;;;5054153;28;20452;-56
2023/06/12 09:05:37;;;;;;;7.67;7.07;;;32.90;30.90;;;;;;5053984;28;20515;-56
2023/06/12 09:08:04;;;;;;;7.33;6.60;;;32.90;30.40;;;;;;5054396;28;20437;-56
2023/06/12 09:10:31;;;;;;;7.03;6.43;;;33.00;30.10;;;;;;5053971;28;20516;-56
2023/06/12 09:12:58;;;;;;;6.70;6.10;;;33.10;31.60;;;;;;5053803;28;20461;-56
2023/06/12 09:15:26;;;;;;;6.93;6.53;;;33.10;31.10;;;;;;5053881;28;20449;-56
2023/06/12 09:17:55;;;;;;;8.70;7.10;;;33.20;30.70;;;;;;5053620;28;20474;-56
2023/06/12 09:20:27;;;;;;;7.00;6.30;;;33.30;30.40;;;;;;5053361;28;20441;-56
2023/06/12 09:22:54;;;;;;;8.30;7.27;;;33.40;29.80;;;;;;5053397;28;21017;-56
2023/06/12 09:25:21;;;;;;;7.30;6.80;;;33.70;30.00;;;;;;5053645;28;20453;-56
2023/06/12 09:27:48;;;;;;;8.00;7.33;;;33.90;30.00;;;;;;5053558;28;20472;-56
2023/06/12 09:30:15;;;;;;;6.80;6.30;;;34.10;29.70;;;;;;5053810;28;20480;-56
2023/06/12 09:32:42;;;;;;;6.50;5.90;;;34.30;29.40;;;;;;5053601;28;20445;-56
2023/06/12 09:35:13;;;;;;;7.80;6.07;;;34.60;28.90;;;;;;5053546;28;20499;-56
2023/06/12 09:37:40;;;;;;;7.33;6.67;;;34.80;28.40;;;;;;5053937;28;20501;-56
2023/06/12 09:40:13;;;;;;;6.83;6.23;;;35.00;28.10;;;;;;5053482;28;20441;-56
2023/06/12 09:42:41;;;;;;;7.67;6.70;;;35.30;28.00;;;;;;5053098;28;20979;-55
2023/06/12 09:45:12;;;;;;;8.10;6.37;;;35.50;28.30;;;;;;5053299;28;20455;-55
2023/06/12 09:47:43;;;;;;;8.07;7.27;;;35.70;28.10;;;;;;5053293;28;20504;-56
2023/06/12 09:50:12;;;;;;;6.80;6.30;;;35.90;28.10;;;;;;5052872;28;20887;-55
2023/06/12 09:52:41;;;;;;;6.93;6.33;;;36.20;28.00;;;;;;5053373;28;20202;-56
2023/06/12 09:55:11;;;;;;;7.23;6.70;;;36.50;26.90;;;;;;5053282;28;20202;-56
2023/06/12 09:57:40;;;;;;;7.20;6.60;;;36.80;26.60;;;;;;5052356;28;20230;-56
2023/06/12 10:00:11;;;;;;;6.00;5.60;;;37.10;26.60;;;;;;5052890;28;20203;-56
2023/06/12 10:02:41;;;;;;;14.45;7.00;;;37.30;26.40;;;;;;5053219;28;20190;-56
2023/06/12 10:05:17;;;;;;;10.07;6.72;;;37.50;25.90;;;;;;5053326;28;20203;-56
2023/06/12 10:07:48;;;;;;;10.15;6.07;;;37.70;25.50;;;;;;5053160;28;20329;-56
2023/06/12 10:10:14;;;;;;;6.95;6.28;;;38.10;25.30;;;;;;5053115;28;20229;-56
2023/06/12 10:12:42;;;;;;;6.78;6.20;;;38.40;25.30;;;;;;5052793;28;20214;-56
2023/06/12 10:15:10;;;;;;;9.45;6.80;;;38.60;25.00;;;;;;5053160;28;20198;-56
2023/06/12 10:17:38;;;;;;;7.50;6.93;;;38.90;24.30;;;;;;5052910;28;20233;-56
2023/06/12 10:20:09;;;;;;;7.18;6.35;;;39.20;23.90;;;;;;5053022;28;20201;-56
2023/06/12 10:22:37;;;;;;;7.25;6.05;;;39.60;23.70;;;;;;5052711;28;20641;-56
2023/06/12 10:25:05;;;;;;;5.40;5.00;;;40.00;22.70;;;;;;5053014;28;20198;-56
2023/06/12 10:27:32;;;;;;;7.40;6.70;;;40.20;21.20;;;;;;5052942;28;20664;-56
2023/06/12 10:30:00;;;;;;;7.13;6.40;;;40.20;20.10;;;;;;5052828;28;20332;-56
2023/06/12 10:32:31;;;;;;;5.93;5.53;;;40.40;20.90;;;;;;5053071;28;20202;-56
2023/06/12 10:34:58;;;;;;;5.85;5.35;;;40.60;20.90;;;;;;5053028;28;20215;-56
2023/06/12 10:37:25;;;;;;;6.95;5.85;;;40.90;20.80;;;;;;5052934;28;20301;-56
2023/06/12 10:40:15;;;;;;;7.70;5.38;;;41.30;20.80;;;;;;5053461;28;20253;-55
2023/06/12 10:42:47;;;;;;;6.22;5.65;;;41.80;20.50;;;;;;5052904;28;20198;-55
2023/06/12 10:45:19;;;;;;;5.72;5.18;;;42.20;19.00;;;;;;5052561;28;20675;-55
2023/06/12 10:48:20;;;;;;;7.05;5.47;;;42.60;19.70;;;;;;5052617;28;20222;-56
2023/06/12 10:50:51;;;;;;;6.68;5.35;;;43.00;19.00;;;;;;5052364;28;20213;-56
2023/06/12 10:53:22;;;;;;;9.07;5.40;;;43.50;18.00;;;;;;5052779;28;20199;-56
2023/06/12 10:55:55;;;;;;;4.75;4.38;;;43.90;17.30;;;;;;5052751;28;20187;-56
2023/06/12 10:58:25;;;;;;;5.78;5.20;;;44.50;17.00;;;;;;5052737;28;20225;-56
2023/06/12 11:00:53;;;;;;;8.75;4.25;;;44.90;16.80;;;;;;5053231;28;20202;-56
2023/06/12 11:03:25;;;;;;;5.50;4.80;;;45.50;16.80;;;;;;5052870;28;20202;-56
2023/06/12 11:05:55;;;;;;;5.03;4.63;;;45.70;14.80;;;;;;5053310;28;20197;-56
2023/06/12 11:08:24;;;;;;;5.13;4.63;;;45.90;14.30;;;;;;5055108;28;20199;-58
2023/06/12 11:10:52;;;;;;;5.28;4.88;;;45.60;14.10;;;;;;5056928;28;20356;-56
2023/06/12 11:13:22;;;;;;;5.80;4.70;;;45.20;14.10;;;;;;5056815;28;20183;-56
2023/06/12 11:15:51;;;;;;;5.55;5.15;;;44.90;14.80;;;;;;5058346;28;20209;-56
2023/06/12 11:18:18;;;;;;;5.68;5.28;;;45.00;14.30;;;;;;5057975;28;20209;-56
2023/06/12 11:20:52;;;;;;;5.45;5.05;;;45.00;14.60;;;;;;5057061;28;20221;-56
2023/06/12 11:23:22;;;;;;;4.63;4.32;;;45.30;15.20;;;;;;5056208;28;20206;-56
2023/06/12 11:25:49;;;;;;;6.05;5.35;;;45.60;14.80;;;;;;5056272;28;20190;-56
2023/06/12 11:28:19;;;;;;;5.97;5.38;;;45.50;14.30;;;;;;5056069;28;20619;-56
2023/06/12 11:30:47;;;;;;;5.10;4.60;;;45.60;15.00;;;;;;5056176;28;20210;-56
2023/06/12 11:33:14;;;;;;;5.05;4.65;;;45.90;15.30;;;;;;5055795;28;20249;-56
2023/06/12 11:35:41;;;;;;;5.80;4.88;;;46.40;14.70;;;;;;5055669;28;20253;-56
2023/06/12 11:38:08;;;;;;;5.43;4.97;;;46.80;13.40;;;;;;5055845;28;20288;-56
2023/06/12 11:40:35;;;;;;;4.95;4.55;;;47.10;13.50;;;;;;5055745;28;20209;-56
2023/06/12 11:43:01;;;;;;;5.40;4.93;;;47.40;13.70;;;;;;5055696;28;20206;-56
2023/06/12 11:45:31;;;;;;;5.10;4.70;;;47.50;13.00;;;;;;5055203;28;20673;-56
2023/06/12 11:47:58;;;;;;;4.80;4.43;;;47.10;12.80;;;;;;5055637;28;20226;-57
2023/06/12 11:50:25;;;;;;;4.68;4.28;;;47.00;13.90;;;;;;5055350;28;20226;-57
2023/06/12 11:52:54;;;;;;;4.57;4.18;;;47.20;13.60;;;;;;5055571;28;20203;-56
2023/06/12 11:55:21;;;;;;;6.15;4.15;;;47.30;13.00;;;;;;5055912;28;20771;-57
2023/06/12 11:57:49;;;;;;;5.40;4.10;;;47.70;13.40;;;;;;5055334;28;20594;-57
2023/06/12 12:00:19;;;;;;;7.05;4.85;;;48.10;13.50;;;;;;5055323;28;20256;-57
2023/06/12 12:02:51;;;;;;;4.45;4.15;;;48.50;12.10;;;;;;5056336;28;20194;-57
2023/06/12 12:05:20;;;;;;;4.50;4.20;;;48.90;12.30;;;;;;5055275;28;20187;-57
2023/06/12 12:07:52;;;;;;;5.28;4.50;;;49.30;12.30;;;;;;5055039;28;20218;-57
2023/06/12 12:10:19;;;;;;;4.30;3.97;;;49.80;12.50;;;;;;5055151;28;20237;-57
2023/06/12 12:12:46;;;;;;;4.00;3.70;;;50.30;12.30;;;;;;5054719;28;20237;-57
2023/06/12 12:15:14;;;;;;;4.72;4.35;;;50.70;12.50;;;;;;5055036;28;20301;-57
2023/06/12 12:17:42;;;;;;;4.85;4.45;;;51.20;12.20;;;;;;5054542;28;20585;-57
2023/06/12 12:20:17;;;;;;;4.53;3.83;;;51.60;12.00;;;;;;5054567;28;20195;-57
2023/06/12 12:22:46;;;;;;;4.22;3.97;;;51.70;10.60;;;;;;5054232;28;20644;-57
2023/06/12 12:25:18;;;;;;;6.00;4.07;;;52.00;11.00;;;;;;5054788;28;20687;-57
2023/06/12 12:27:45;;;;;;;4.25;3.85;;;51.90;10.00;;;;;;5054682;28;20230;-57
2023/06/12 12:30:15;;;;;;;3.97;3.78;;;51.80;10.90;;;;;;5054628;28;20237;-57
2023/06/12 12:32:43;;;;;;;5.20;4.72;;;51.60;11.40;;;;;;5054774;28;20209;-57
2023/06/12 12:35:11;;;;;;;4.50;4.28;;;50.70;12.20;;;;;;5054470;28;20202;-57
2023/06/12 12:37:38;;;;;;;5.15;4.65;;;49.70;13.60;;;;;;5054616;28;20249;-57
2023/06/12 12:40:09;;;;;;;5.00;4.70;;;49.40;13.10;;;;;;5054537;28;20209;-57
2023/06/12 12:42:37;;;;;;;5.32;4.80;;;49.70;12.10;;;;;;5054256;28;20599;-57
2023/06/12 12:45:04;;;;;;;4.78;4.53;;;49.90;11.30;;;;;;5054143;28;20707;-57
2023/06/12 12:47:32;;;;;;;4.55;4.15;;;50.10;12.30;;;;;;5054251;28;20222;-57
2023/06/12 12:49:58;;;;;;;4.57;4.28;;;50.60;12.20;;;;;;5054413;28;20214;-57